Terminal Aerodrome Forecast
Issued by NWS

Home | Current Version | Previous Version | Text Only | Print | Product List | Glossary On
Versions: 1 2 3 4 5 6 7 8 9 10 11 12
894
FTUS43 KGRR 202321
TAFJXN
TAF
KJXN 202321Z 2100/2124 27005KT P6SM SCT035
     FM210600 00000KT 4SM BR SKC
     FM210900 00000KT 1/4SM FG VV001
     FM211200 06002KT 4SM BR SKC
     FM211500 VRB04KT P6SM SCT250=

USA.gov is the U.S. government's official web portal to all federal, state and local government web resources and services.